Time;durP1;ratioP1;P1;durP2;ratioP2;P2;SDS_P1;SDS_P2;PMS_P1;PMS_P2;Temp;Humidity;BMP_temperature;BMP_pressure;BME280_temperature;BME280_humidity;BME280_pressure;Samples;Min_cycle;Max_cycle;Signal;HPM_P1;HPM_P2
2023/02/20 00:00:05;;;;;;;8.20;4.97;;;;;;;6.48;89.59;96638.88;5033488;28;20848;-78
2023/02/20 00:02:31;;;;;;;13.03;5.47;;;;;;;6.46;88.96;96633.81;5016302;28;20183;-78
2023/02/20 00:04:56;;;;;;;8.03;4.63;;;;;;;6.47;88.80;96632.06;5009870;28;20622;-78
2023/02/20 00:07:21;;;;;;;9.83;5.13;;;;;;;6.43;89.14;96636.56;5005403;28;20243;-78
2023/02/20 00:09:46;;;;;;;9.13;4.73;;;;;;;6.28;90.00;96634.13;5020141;28;20193;-78
2023/02/20 00:12:12;;;;;;;9.57;4.47;;;;;;;6.29;90.12;96622.88;5025339;28;20199;-78
2023/02/20 00:14:37;;;;;;;8.90;4.50;;;;;;;6.18;90.58;96631.25;5043008;28;20191;-77
2023/02/20 00:17:02;;;;;;;11.13;4.63;;;;;;;6.10;90.99;96623.19;5023081;28;20187;-78
2023/02/20 00:19:28;;;;;;;9.70;5.07;;;;;;;6.05;91.49;96620.88;5047095;28;20193;-77
2023/02/20 00:21:53;;;;;;;9.47;4.97;;;;;;;6.12;90.76;96621.34;5043767;28;20187;-77
2023/02/20 00:24:19;;;;;;;7.60;4.93;;;;;;;6.16;90.63;96620.22;5040271;28;20219;-78
2023/02/20 00:26:48;;;;;;;12.60;5.13;;;;;;;6.07;90.62;96624.19;5037622;28;20194;-78
2023/02/20 00:29:15;;;;;;;6.73;4.30;;;;;;;6.14;90.33;96616.91;5015076;28;21025;-78
2023/02/20 00:31:41;;;;;;;8.60;4.73;;;;;;;6.04;90.50;96620.97;5027661;28;20187;-78
2023/02/20 00:34:06;;;;;;;8.67;4.93;;;;;;;5.96;90.82;96624.03;5024250;28;20199;-77
2023/02/20 00:36:31;;;;;;;10.80;5.40;;;;;;;5.96;91.59;96627.44;5009020;28;20198;-78
2023/02/20 00:38:57;;;;;;;11.33;5.40;;;;;;;5.97;91.59;96641.16;5009829;28;20662;-78
2023/02/20 00:41:22;;;;;;;10.90;4.80;;;;;;;5.94;90.90;96642.16;5028998;28;20557;-78
2023/02/20 00:43:47;;;;;;;8.57;5.10;;;;;;;6.00;90.97;96650.44;5019725;28;20207;-78
2023/02/20 00:46:13;;;;;;;9.80;5.00;;;;;;;5.94;91.02;96657.63;5024079;28;20179;-78
2023/02/20 00:48:38;;;;;;;11.93;4.97;;;;;;;5.92;91.10;96648.34;5025312;28;20612;-78
2023/02/20 00:51:04;;;;;;;7.53;4.50;;;;;;;5.92;90.91;96643.19;5018024;28;20179;-78
2023/02/20 00:53:29;;;;;;;10.50;5.00;;;;;;;5.88;90.97;96639.09;5002864;28;20204;-78
2023/02/20 00:55:54;;;;;;;9.47;4.83;;;;;;;5.86;91.25;96633.19;5024052;28;20202;-78
2023/02/20 00:58:20;;;;;;;8.70;5.03;;;;;;;5.81;92.46;96645.53;5027516;28;20191;-78
2023/02/20 01:00:45;;;;;;;8.43;4.17;;;;;;;5.80;92.45;96639.53;5018265;28;20206;-78
2023/02/20 01:03:12;;;;;;;11.73;4.93;;;;;;;5.75;93.22;96639.00;5022413;28;20215;-78
2023/02/20 01:05:37;;;;;;;10.03;5.17;;;;;;;5.75;93.64;96631.28;5008860;28;20186;-78
2023/02/20 01:08:02;;;;;;;9.33;5.20;;;;;;;5.81;93.39;96627.47;5006541;28;20206;-78
2023/02/20 01:10:27;;;;;;;13.40;5.80;;;;;;;5.61;94.83;96634.66;5020868;28;20204;-78
2023/02/20 01:12:53;;;;;;;10.27;5.50;;;;;;;5.78;94.24;96636.25;5011791;28;20182;-78
2023/02/20 01:15:18;;;;;;;14.20;5.90;;;;;;;5.77;94.03;96639.75;5006441;28;20734;-78
2023/02/20 01:17:43;;;;;;;12.50;6.23;;;;;;;5.74;94.51;96639.91;5019676;28;20668;-78
2023/02/20 01:20:10;;;;;;;12.87;6.10;;;;;;;5.69;94.66;96635.03;5005299;28;20198;-78
2023/02/20 01:22:35;;;;;;;9.57;6.17;;;;;;;5.67;95.65;96628.31;5025306;28;20250;-78
2023/02/20 01:25:00;;;;;;;12.60;6.73;;;;;;;5.57;96.64;96627.22;5015191;28;20206;-78
2023/02/20 01:27:25;;;;;;;16.17;6.97;;;;;;;5.61;96.13;96626.09;5001896;28;20194;-78
2023/02/20 01:29:51;;;;;;;13.10;6.37;;;;;;;5.61;95.97;96624.34;5023750;28;20197;-78
2023/02/20 01:32:16;;;;;;;11.53;6.10;;;;;;;5.60;96.42;96619.28;5030739;28;20527;-78
2023/02/20 01:34:41;;;;;;;10.23;6.07;;;;;;;5.65;96.21;96624.97;5030385;28;20212;-78
2023/02/20 01:37:12;;;;;;;9.87;6.63;;;;;;;5.62;96.69;96636.31;5022214;28;20182;-78
2023/02/20 01:39:37;;;;;;;12.10;6.33;;;;;;;5.66;96.01;96626.66;5027260;28;20186;-78
2023/02/20 01:42:05;;;;;;;13.30;5.93;;;;;;;5.61;96.48;96619.19;5033998;28;20770;-78
2023/02/20 01:44:33;;;;;;;13.07;6.57;;;;;;;5.58;97.10;96623.72;5022068;28;20222;-78
2023/02/20 01:47:00;;;;;;;14.00;6.63;;;;;;;5.62;97.28;96617.44;5031486;28;20270;-78
2023/02/20 01:49:35;;;;;;;16.13;7.67;;;;;;;5.61;97.46;96624.34;5008377;28;20191;-78
2023/02/20 01:52:30;;;;;;;13.97;6.60;;;;;;;5.69;96.85;96611.84;5002008;28;20256;-77
2023/02/20 01:55:02;;;;;;;12.93;6.47;;;;;;;5.64;96.95;96595.81;5017671;28;20236;-77
2023/02/20 01:57:29;;;;;;;13.87;7.37;;;;;;;5.73;95.85;96594.44;5029612;28;20190;-78
2023/02/20 01:59:59;;;;;;;13.07;6.80;;;;;;;5.67;96.05;96600.81;5017242;28;20675;-78
2023/02/20 02:02:26;;;;;;;14.87;6.60;;;;;;;5.61;96.90;96601.16;5030651;28;20178;-78
2023/02/20 02:04:51;;;;;;;10.77;6.10;;;;;;;5.67;95.81;96592.25;5026490;28;20215;-78
2023/02/20 02:07:17;;;;;;;9.07;6.17;;;;;;;5.58;96.07;96596.19;5023427;28;20195;-77
2023/02/20 02:09:58;;;;;;;10.83;6.27;;;;;;;5.61;95.72;96597.75;5022360;28;20194;-78
2023/02/20 02:12:24;;;;;;;10.53;5.70;;;;;;;5.64;95.06;96589.84;5031763;28;20175;-78
2023/02/20 02:14:49;;;;;;;10.33;5.57;;;;;;;5.60;95.09;96584.03;5024483;28;20596;-78
2023/02/20 02:17:45;;;;;;;10.97;5.83;;;;;;;5.67;94.43;96592.25;5009436;28;20187;-78
2023/02/20 02:20:31;;;;;;;11.53;6.00;;;;;;;5.58;94.40;96585.06;5021142;28;20318;-78
2023/02/20 02:23:24;;;;;;;10.60;6.23;;;;;;;5.43;95.54;96591.13;5031482;28;20194;-78
2023/02/20 02:26:26;;;;;;;10.13;6.27;;;;;;;5.44;95.88;96588.44;5020340;28;20179;-78
2023/02/20 02:29:04;;;;;;;16.47;5.80;;;;;;;5.38;95.27;96586.22;5024448;28;20182;-78
2023/02/20 02:32:07;;;;;;;9.93;5.70;;;;;;;5.36;95.34;96577.75;5025964;28;20673;-77
2023/02/20 02:35:26;;;;;;;12.77;5.90;;;;;;;5.39;95.39;96587.91;5019027;28;20644;-78
2023/02/20 02:37:57;;;;;;;12.87;5.70;;;;;;;5.36;95.09;96588.06;5015897;28;20229;-78
2023/02/20 02:40:51;;;;;;;12.23;5.83;;;;;;;5.27;96.26;96583.47;5025849;28;20217;-78
2023/02/20 02:43:34;;;;;;;12.47;6.00;;;;;;;5.38;95.00;96589.63;5033826;28;20240;-78
2023/02/20 02:46:06;;;;;;;9.53;5.80;;;;;;;5.34;96.04;96587.34;5030632;28;20194;-78
2023/02/20 02:48:36;;;;;;;7.47;5.53;;;;;;;5.37;95.46;96587.97;5024705;28;20194;-78
2023/02/20 02:51:05;;;;;;;13.33;6.57;;;;;;;5.37;95.90;96585.41;5017542;28;20218;-78
2023/02/20 02:53:30;;;;;;;11.60;6.23;;;;;;;5.40;96.21;96580.09;5020825;28;20279;-78
2023/02/20 02:55:56;;;;;;;14.50;5.70;;;;;;;5.50;95.46;96575.22;5025939;28;20186;-78
2023/02/20 02:58:22;;;;;;;11.07;6.37;;;;;;;5.50;95.66;96587.28;5015833;28;20186;-77
2023/02/20 03:00:52;;;;;;;8.13;5.43;;;;;;;5.48;95.96;96578.78;5018280;28;20689;-78
2023/02/20 03:03:22;;;;;;;14.70;5.87;;;;;;;5.63;95.18;96577.88;5030414;28;20317;-78
2023/02/20 03:06:06;;;;;;;12.10;5.23;;;;;;;5.71;94.71;96585.16;5029809;28;20237;-78
2023/02/20 03:08:38;;;;;;;11.40;5.67;;;;;;;5.72;94.51;96586.78;5031050;28;20218;-77
2023/02/20 03:11:07;;;;;;;8.37;5.00;;;;;;;5.72;94.86;96586.78;5032057;28;20191;-78
2023/02/20 03:16:30;;;;;;;11.67;5.90;;;;;;;5.73;94.53;96578.97;5033841;28;20262;-78
2023/02/20 03:18:58;;;;;;;12.67;5.70;;;;;;;5.82;93.51;96591.28;5034834;28;20694;-78
2023/02/20 03:21:24;;;;;;;12.20;5.80;;;;;;;5.84;93.84;96584.31;5027533;28;20690;-78
2023/02/20 03:23:54;;;;;;;7.67;4.90;;;;;;;5.86;93.91;96577.31;5022013;28;20317;-78
2023/02/20 03:26:25;;;;;;;6.93;5.30;;;;;;;5.78;93.61;96579.53;5001269;28;20195;-78
2023/02/20 03:28:55;;;;;;;11.80;5.67;;;;;;;5.76;93.45;96571.06;5017681;28;20191;-78
2023/02/20 03:31:34;;;;;;;10.77;5.93;;;;;;;5.72;93.99;96569.59;5012061;28;20193;-78
2023/02/20 03:45:22;;;;;;;12.20;5.60;;;;;;;5.73;92.94;96566.09;5030804;28;20274;-78
2023/02/20 03:47:51;;;;;;;9.17;5.40;;;;;;;5.78;92.67;96569.22;5023170;28;20532;-78
2023/02/20 03:53:01;;;;;;;9.97;5.37;;;;;;;5.65;92.70;96570.88;5026323;28;20189;-77
2023/02/20 03:55:26;;;;;;;10.57;5.53;;;;;;;5.66;92.87;96577.72;5022637;28;20185;-77
2023/02/20 03:57:55;;;;;;;9.97;5.40;;;;;;;5.67;92.14;96561.31;5018339;28;20563;-77
2023/02/20 04:00:29;;;;;;;11.40;5.43;;;;;;;5.65;92.47;96560.56;5015956;28;20271;-77
2023/02/20 04:02:57;;;;;;;11.50;5.83;;;;;;;5.64;92.09;96554.56;5019297;28;20205;-77
2023/02/20 04:05:24;;;;;;;10.47;5.60;;;;;;;5.58;92.32;96552.41;5023171;28;20651;-77
2023/02/20 04:08:10;;;;;;;11.47;6.10;;;;;;;5.48;93.16;96550.44;5030058;28;20214;-77
2023/02/20 04:10:40;;;;;;;8.23;5.10;;;;;;;5.44;92.65;96552.38;5010951;28;20522;-77
2023/02/20 04:13:06;;;;;;;10.90;4.77;;;;;;;5.36;93.02;96555.41;5006115;28;20213;-77
2023/02/20 04:15:32;;;;;;;10.17;5.33;;;;;;;5.31;93.67;96544.56;5010527;28;20197;-77
2023/02/20 04:18:10;;;;;;;10.60;4.97;;;;;;;5.32;93.51;96541.06;5029912;28;20267;-77
2023/02/20 04:20:35;;;;;;;9.07;5.07;;;;;;;5.33;92.86;96537.56;5024579;28;20183;-77
2023/02/20 04:23:06;;;;;;;9.77;4.57;;;;;;;5.29;93.26;96540.41;5023355;28;20237;-77
2023/02/20 04:25:50;;;;;;;11.33;5.20;;;;;;;5.31;93.15;96536.84;5029881;28;20272;-76
2023/02/20 04:28:16;;;;;;;7.87;4.97;;;;;;;5.32;92.38;96528.19;5025978;28;20197;-78
2023/02/20 04:30:41;;;;;;;8.63;5.50;;;;;;;5.27;92.57;96524.22;5004761;28;20218;-78
2023/02/20 04:33:10;;;;;;;10.57;5.00;;;;;;;5.21;92.98;96525.44;5016284;28;20260;-77
2023/02/20 04:35:35;;;;;;;8.93;4.97;;;;;;;5.14;93.35;96531.88;5001228;28;20548;-77
2023/02/20 04:38:00;;;;;;;10.90;5.53;;;;;;;5.19;92.73;96529.81;5022486;28;20190;-77
2023/02/20 04:40:26;;;;;;;10.63;4.43;;;;;;;5.11;93.08;96532.03;5026561;28;20194;-77
2023/02/20 04:42:51;;;;;;;9.27;4.37;;;;;;;5.05;92.88;96542.69;5030256;28;20221;-76
2023/02/20 04:45:16;;;;;;;7.27;4.40;;;;;;;5.05;93.16;96547.84;5025107;28;20717;-77
2023/02/20 04:47:43;;;;;;;10.97;5.03;;;;;;;5.00;93.76;96552.44;5021943;28;20260;-78
2023/02/20 04:50:09;;;;;;;8.43;4.40;;;;;;;4.99;93.49;96541.31;5017475;28;20736;-77
2023/02/20 04:52:34;;;;;;;8.57;4.17;;;;;;;4.94;93.28;96545.88;4996057;28;20194;-77
2023/02/20 04:55:00;;;;;;;9.40;4.57;;;;;;;5.00;93.53;96537.81;5019615;28;20217;-77
2023/02/20 04:57:25;;;;;;;9.70;4.73;;;;;;;5.01;92.85;96536.06;5026594;28;20647;-77
2023/02/20 04:59:50;;;;;;;6.67;4.07;;;;;;;4.93;93.44;96535.69;5014593;28;20233;-77
2023/02/20 05:02:16;;;;;;;12.50;4.63;;;;;;;4.96;93.14;96535.50;5016571;28;20194;-77
2023/02/20 05:04:41;;;;;;;5.53;4.60;;;;;;;5.00;93.37;96536.97;5020880;28;20838;-77
2023/02/20 05:07:06;;;;;;;8.60;4.37;;;;;;;4.94;93.35;96537.31;5015962;28;20182;-78
2023/02/20 05:09:32;;;;;;;8.63;4.53;;;;;;;4.99;92.31;96553.34;4997705;28;20237;-78
2023/02/20 05:11:57;;;;;;;10.83;4.30;;;;;;;4.91;93.25;96555.53;5020679;28;20677;-77
2023/02/20 05:14:22;;;;;;;6.57;4.10;;;;;;;4.88;93.00;96548.00;5026052;28;20733;-78
2023/02/20 05:16:50;;;;;;;9.03;4.60;;;;;;;4.86;93.29;96542.09;5033744;28;20265;-77
2023/02/20 05:19:15;;;;;;;7.87;4.53;;;;;;;4.93;93.15;96551.13;5025526;28;20291;-77
2023/02/20 05:24:27;;;;;;;11.20;4.47;;;;;;;4.87;93.48;96541.19;5019107;28;20224;-77
2023/02/20 05:26:53;;;;;;;8.03;4.50;;;;;;;4.96;92.58;96540.66;5018890;28;20194;-77
2023/02/20 05:29:18;;;;;;;11.87;5.20;;;;;;;4.94;92.87;96540.72;5013461;28;20187;-78
2023/02/20 05:31:43;;;;;;;9.90;4.47;;;;;;;4.92;92.17;96537.41;5015921;28;20197;-77
2023/02/20 05:34:09;;;;;;;10.00;4.70;;;;;;;4.80;92.89;96527.84;5018909;28;20213;-77
2023/02/20 05:36:34;;;;;;;7.93;4.03;;;;;;;4.85;92.77;96520.66;5030853;28;20666;-78
2023/02/20 05:38:59;;;;;;;12.50;4.20;;;;;;;4.82;92.64;96526.00;5025199;28;20260;-78
2023/02/20 05:41:25;;;;;;;7.37;4.53;;;;;;;4.82;92.72;96521.69;5019010;28;20202;-78
2023/02/20 05:43:50;;;;;;;8.70;4.27;;;;;;;4.71;92.93;96523.22;5019388;28;20228;-78
2023/02/20 05:46:16;;;;;;;8.90;4.37;;;;;;;4.70;92.01;96530.13;5003276;28;20559;-78
2023/02/20 05:48:42;;;;;;;9.23;4.27;;;;;;;4.65;92.21;96529.53;5027209;28;20199;-78
2023/02/20 05:51:07;;;;;;;8.27;4.30;;;;;;;4.59;92.46;96529.88;5001845;28;20194;-78
2023/02/20 05:53:32;;;;;;;8.37;4.63;;;;;;;4.57;92.31;96525.75;5024349;28;20198;-78
2023/02/20 05:55:58;;;;;;;9.67;4.60;;;;;;;4.54;92.52;96537.06;5014041;28;20182;-78
2023/02/20 05:58:23;;;;;;;6.60;5.10;;;;;;;4.48;92.70;96545.94;5038044;28;20197;-78
2023/02/20 06:00:49;;;;;;;11.90;5.37;;;;;;;4.41;92.61;96542.03;5036741;28;20202;-78
2023/02/20 06:03:14;;;;;;;9.23;5.90;;;;;;;4.38;92.08;96543.97;5014219;28;20219;-78
2023/02/20 06:05:40;;;;;;;9.97;5.93;;;;;;;4.37;92.84;96540.56;5024841;28;20639;-78
2023/02/20 06:08:05;;;;;;;12.70;6.80;;;;;;;4.34;92.13;96537.34;5020218;28;20205;-78
2023/02/20 06:10:30;;;;;;;6.80;5.47;;;;;;;4.29;92.16;96535.00;5025144;28;20193;-78
2023/02/20 06:12:56;;;;;;;8.07;5.47;;;;;;;4.25;92.55;96543.81;5031672;28;20181;-78
2023/02/20 06:15:21;;;;;;;7.30;5.07;;;;;;;4.24;92.98;96542.13;5034594;28;20191;-78
2023/02/20 06:17:46;;;;;;;7.27;5.63;;;;;;;4.14;92.87;96536.69;5035361;28;20191;-79
2023/02/20 06:20:12;;;;;;;7.23;4.33;;;;;;;4.13;92.92;96529.88;5012015;28;20190;-78
2023/02/20 06:22:37;;;;;;;5.40;3.97;;;;;;;4.13;93.85;96531.63;5007418;28;20661;-78
2023/02/20 06:25:03;;;;;;;4.43;3.73;;;;;;;4.22;93.28;96531.94;5017809;28;20213;-78
2023/02/20 06:27:28;;;;;;;5.93;3.90;;;;;;;4.20;92.95;96533.78;5020446;28;20195;-78
2023/02/20 06:29:53;;;;;;;9.37;4.50;;;;;;;4.18;93.70;96538.19;5026186;28;20783;-78
2023/02/20 06:32:18;;;;;;;7.57;3.87;;;;;;;4.23;93.12;96538.75;5034846;28;20201;-78
2023/02/20 06:34:44;;;;;;;6.50;4.30;;;;;;;4.32;93.50;96539.16;5031719;28;20211;-78
2023/02/20 06:37:09;;;;;;;6.87;4.43;;;;;;;4.35;92.93;96533.84;5026930;28;20192;-78
2023/02/20 06:39:35;;;;;;;7.17;3.60;;;;;;;4.39;92.27;96540.47;5027448;28;20191;-78
2023/02/20 06:42:00;;;;;;;9.60;3.93;;;;;;;4.39;92.30;96553.31;5019276;28;20225;-77
2023/02/20 06:44:25;;;;;;;6.87;4.07;;;;;;;4.44;92.27;96551.34;5004505;28;20253;-79
2023/02/20 06:46:51;;;;;;;10.43;4.43;;;;;;;4.48;91.67;96556.22;5010330;28;20209;-77
2023/02/20 06:49:16;;;;;;;10.77;4.53;;;;;;;4.48;91.56;96552.81;5023502;28;20198;-78
2023/02/20 06:51:41;;;;;;;5.67;3.63;;;;;;;4.49;91.70;96554.47;5027786;28;20749;-79
2023/02/20 06:54:07;;;;;;;6.37;3.43;;;;;;;4.51;91.17;96548.34;5031134;28;20225;-80
2023/02/20 06:56:34;;;;;;;12.27;4.20;;;;;;;4.58;90.94;96553.13;5035145;28;20568;-78
2023/02/20 06:59:00;;;;;;;7.13;4.07;;;;;;;4.55;90.44;96552.38;5037717;28;20614;-78
2023/02/20 07:01:27;;;;;;;7.70;3.40;;;;;;;4.63;90.71;96556.28;5017381;28;20300;-77
2023/02/20 07:03:54;;;;;;;7.57;4.17;;;;;;;4.62;90.60;96558.03;5012083;28;20264;-77
2023/02/20 07:06:20;;;;;;;6.63;3.33;;;;;;;4.63;90.59;96564.81;5033102;28;20179;-77
2023/02/20 07:08:45;;;;;;;7.23;3.63;;;;;;;4.66;90.30;96558.66;5010828;28;20190;-78
2023/02/20 07:11:11;;;;;;;8.33;4.27;;;;;;;4.69;89.63;96561.91;5012069;28;20182;-78
2023/02/20 07:13:36;;;;;;;9.93;4.40;;;;;;;4.70;90.29;96553.28;5005595;28;20252;-78
2023/02/20 07:16:01;;;;;;;9.20;3.90;;;;;;;4.74;89.80;96554.75;5015670;28;20202;-77
2023/02/20 07:18:27;;;;;;;8.13;3.40;;;;;;;4.82;90.24;96551.75;5003221;28;20193;-78
2023/02/20 07:20:53;;;;;;;10.67;3.97;;;;;;;4.82;90.04;96555.13;5025196;28;20189;-78
2023/02/20 07:23:19;;;;;;;10.57;3.90;;;;;;;4.88;89.79;96551.41;5013384;28;20216;-78
2023/02/20 07:25:44;;;;;;;7.43;3.67;;;;;;;5.00;89.51;96558.41;5008027;28;20194;-77
2023/02/20 07:28:09;;;;;;;6.27;3.53;;;;;;;5.09;89.66;96564.75;5031549;28;20214;-78
2023/02/20 07:30:35;;;;;;;5.83;3.03;;;;;;;5.18;89.49;96563.41;5026599;28;20265;-78
2023/02/20 07:33:00;;;;;;;5.43;3.37;;;;;;;5.30;88.61;96567.81;5044585;28;20191;-78
2023/02/20 07:35:25;;;;;;;6.07;3.30;;;;;;;5.44;87.71;96564.44;5041680;28;20205;-78
2023/02/20 07:37:51;;;;;;;8.37;3.37;;;;;;;5.49;87.83;96562.44;5036044;28;20188;-77
2023/02/20 07:40:16;;;;;;;6.97;2.77;;;;;;;5.65;86.87;96568.28;5046112;28;20780;-78
2023/02/20 07:42:41;;;;;;;6.63;3.53;;;;;;;5.79;86.14;96573.44;5025581;28;20210;-77
2023/02/20 07:45:09;;;;;;;4.47;2.73;;;;;;;5.88;85.38;96574.63;5006232;28;20202;-78
2023/02/20 07:47:34;;;;;;;7.57;3.20;;;;;;;5.80;85.22;96566.53;5026951;28;20178;-78
2023/02/20 07:50:00;;;;;;;7.23;4.07;;;;;;;6.03;84.36;96567.75;5025403;28;20198;-78
2023/02/20 07:52:25;;;;;;;7.33;3.87;;;;;;;6.10;83.87;96566.47;5017176;28;20183;-78
2023/02/20 07:54:50;;;;;;;7.23;3.90;;;;;;;6.16;83.53;96566.06;5022043;28;20260;-78
2023/02/20 07:57:16;;;;;;;9.90;3.80;;;;;;;6.26;83.72;96564.56;5027782;28;20189;-78
2023/02/20 07:59:41;;;;;;;4.67;2.70;;;;;;;6.28;83.07;96565.31;5004733;28;20659;-78
2023/02/20 08:02:06;;;;;;;5.23;2.80;;;;;;;6.33;82.09;96571.00;5005134;28;20278;-78
2023/02/20 08:04:32;;;;;;;7.37;2.77;;;;;;;6.34;82.42;96567.47;5027175;28;20219;-78
2023/02/20 08:06:57;;;;;;;5.80;2.83;;;;;;;6.38;81.39;96578.44;5016173;28;20198;-77
2023/02/20 08:09:22;;;;;;;4.40;3.10;;;;;;;6.48;81.41;96567.44;5017594;28;20190;-78
2023/02/20 08:11:48;;;;;;;8.23;2.63;;;;;;;6.60;81.00;96568.41;5020528;28;20195;-78
2023/02/20 08:14:14;;;;;;;8.00;2.80;;;;;;;6.62;81.02;96571.72;5013023;28;20213;-79
2023/02/20 08:16:39;;;;;;;4.53;2.73;;;;;;;6.69;80.78;96567.00;5022192;28;20203;-76
2023/02/20 08:19:04;;;;;;;6.70;3.03;;;;;;;6.77;80.59;96572.50;5017801;28;20722;-79
2023/02/20 08:21:30;;;;;;;5.60;2.80;;;;;;;6.80;80.02;96569.69;5023907;28;20237;-79
2023/02/20 08:23:55;;;;;;;4.97;2.67;;;;;;;6.81;79.86;96555.88;4999774;28;20222;-77
2023/02/20 08:26:21;;;;;;;6.87;2.90;;;;;;;6.88;79.58;96566.63;5015635;28;20201;-78
2023/02/20 08:28:47;;;;;;;7.57;3.07;;;;;;;6.91;79.29;96564.69;5001239;28;20213;-77
2023/02/20 08:31:12;;;;;;;6.67;2.63;;;;;;;6.96;79.16;96565.19;5005214;28;20195;-79
2023/02/20 08:33:37;;;;;;;7.37;3.03;;;;;;;7.06;78.69;96566.22;5001283;28;20213;-79
2023/02/20 08:36:03;;;;;;;6.53;2.70;;;;;;;7.14;77.64;96562.31;5002752;28;20190;-79
2023/02/20 08:38:30;;;;;;;4.27;2.50;;;;;;;7.23;77.32;96561.72;5009928;28;20190;-79
2023/02/20 08:40:55;;;;;;;8.93;2.80;;;;;;;7.24;77.19;96559.03;5029500;28;20185;-78
2023/02/20 08:43:21;;;;;;;5.73;2.60;;;;;;;7.27;77.03;96561.41;5003878;28;20218;-79
2023/02/20 08:45:46;;;;;;;5.60;2.37;;;;;;;7.35;76.94;96563.50;5006622;28;20190;-79
2023/02/20 08:48:12;;;;;;;6.83;2.70;;;;;;;7.35;76.24;96554.00;5011967;28;20666;-78
2023/02/20 08:50:37;;;;;;;6.03;2.53;;;;;;;7.39;75.74;96549.44;5002843;28;20190;-79
2023/02/20 08:53:02;;;;;;;7.43;2.80;;;;;;;7.46;75.28;96557.59;5018426;28;20179;-78
2023/02/20 08:55:28;;;;;;;6.37;2.63;;;;;;;7.62;74.30;96556.44;5009463;28;20817;-77
2023/02/20 08:57:54;;;;;;;4.93;2.33;;;;;;;7.64;73.92;96556.34;5013537;28;20232;-77
2023/02/20 09:00:20;;;;;;;4.73;2.50;;;;;;;7.76;73.25;96554.66;5017543;28;20247;-80
2023/02/20 09:02:46;;;;;;;4.23;2.37;;;;;;;7.90;73.25;96547.63;5021330;28;20221;-77
2023/02/20 09:05:12;;;;;;;6.63;3.47;;;;;;;7.93;72.61;96549.16;5016303;28;20182;-77
2023/02/20 09:07:37;;;;;;;7.70;2.30;;;;;;;8.11;70.62;96552.22;5027137;28;20189;-78
2023/02/20 09:10:04;;;;;;;5.27;2.53;;;;;;;8.26;70.38;96548.56;5022551;28;20185;-77
2023/02/20 09:12:29;;;;;;;5.70;2.57;;;;;;;8.49;69.84;96544.38;5020504;28;20182;-78
2023/02/20 09:14:55;;;;;;;4.70;2.00;;;;;;;8.64;69.71;96545.00;5017537;28;20226;-78
2023/02/20 09:17:20;;;;;;;3.53;2.53;;;;;;;8.84;69.48;96543.56;5009047;28;20202;-78
2023/02/20 09:19:45;;;;;;;4.30;1.87;;;;;;;8.99;67.79;96547.59;5001995;28;20228;-78
2023/02/20 09:22:11;;;;;;;4.27;2.27;;;;;;;9.31;67.39;96543.44;5022651;28;20194;-78
2023/02/20 09:24:36;;;;;;;5.37;1.60;;;;;;;9.35;66.61;96544.84;5011512;28;20222;-76
2023/02/20 09:27:02;;;;;;;4.20;1.93;;;;;;;9.79;65.81;96547.59;4998831;28;20198;-77
2023/02/20 09:29:28;;;;;;;4.73;2.30;;;;;;;9.90;64.48;96545.00;5016344;28;20345;-77
2023/02/20 09:31:53;;;;;;;5.73;2.10;;;;;;;9.86;64.55;96539.22;5000403;28;20286;-77
2023/02/20 09:34:19;;;;;;;5.33;2.00;;;;;;;9.82;63.49;96531.81;5014170;28;20332;-77
2023/02/20 09:36:45;;;;;;;4.00;1.97;;;;;;;9.92;63.33;96535.34;5001579;28;20248;-77
2023/02/20 09:39:10;;;;;;;8.30;2.10;;;;;;;10.10;62.94;96536.50;5020138;28;20182;-77
2023/02/20 09:41:57;;;;;;;4.23;1.90;;;;;;;9.98;62.71;96539.19;5017891;28;20191;-77
2023/02/20 09:44:28;;;;;;;4.17;1.90;;;;;;;10.09;62.40;96534.03;5021843;28;20219;-77
2023/02/20 09:46:55;;;;;;;6.93;2.33;;;;;;;9.78;62.75;96531.19;5009355;28;20198;-78
2023/02/20 09:49:25;;;;;;;4.07;1.47;;;;;;;9.93;62.58;96534.38;5015892;28;20183;-78
2023/02/20 09:51:54;;;;;;;2.60;2.03;;;;;;;9.79;61.79;96542.41;5018623;28;20278;-78
2023/02/20 09:54:28;;;;;;;4.93;2.37;;;;;;;9.90;62.15;96530.28;5017792;28;20207;-77
2023/02/20 09:56:56;;;;;;;5.00;2.73;;;;;;;9.85;62.16;96523.78;5025771;28;20200;-78
2023/02/20 09:59:23;;;;;;;5.53;2.70;;;;;;;9.76;61.97;96522.72;5010935;28;20198;-78
2023/02/20 10:01:55;;;;;;;2.93;1.77;;;;;;;9.82;60.61;96514.47;5010554;28;20278;-78
2023/02/20 10:04:26;;;;;;;7.00;2.17;;;;;;;9.88;60.44;96513.16;5018632;28;20218;-78
2023/02/20 10:06:54;;;;;;;5.63;1.73;;;;;;;9.91;60.68;96512.94;5028416;28;20213;-78
2023/02/20 10:09:19;;;;;;;4.67;2.03;;;;;;;9.76;60.46;96507.16;5027054;28;20198;-78
2023/02/20 10:12:17;;;;;;;6.87;1.90;;;;;;;9.91;60.09;96503.38;5023078;28;20187;-78
2023/02/20 10:14:54;;;;;;;4.10;1.87;;;;;;;10.13;59.68;96499.06;5011280;28;20252;-78
2023/02/20 10:17:34;;;;;;;3.80;1.47;;;;;;;10.08;59.11;96499.47;5005911;28;20202;-78
2023/02/20 10:20:30;;;;;;;3.50;1.37;;;;;;;10.11;58.31;96500.97;5024536;28;20183;-78
2023/02/20 10:23:02;;;;;;;3.60;1.50;;;;;;;9.99;58.10;96500.19;5025497;28;20313;-78
2023/02/20 10:25:30;;;;;;;6.07;1.93;;;;;;;10.25;58.35;96492.97;5002942;28;20183;-78
2023/02/20 10:28:07;;;;;;;4.07;1.70;;;;;;;9.97;58.96;96496.88;5020819;28;20643;-78
2023/02/20 10:30:37;;;;;;;3.87;1.90;;;;;;;10.16;57.89;96493.66;5018208;28;20296;-78
2023/02/20 10:33:08;;;;;;;4.87;1.40;;;;;;;10.18;57.71;96487.41;5008435;28;20664;-78
2023/02/20 10:35:41;;;;;;;4.83;1.40;;;;;;;10.15;57.25;96486.81;5020521;28;20190;-78
2023/02/20 10:38:10;;;;;;;3.17;1.73;;;;;;;10.35;57.25;96493.03;5003960;28;20187;-78
2023/02/20 10:40:40;;;;;;;5.40;1.60;;;;;;;10.26;56.94;96494.59;5016968;28;20673;-79
2023/02/20 10:43:34;;;;;;;5.33;1.30;;;;;;;10.38;57.00;96491.03;5006979;28;20206;-79
2023/02/20 10:46:24;;;;;;;2.67;1.40;;;;;;;10.47;57.14;96495.47;5017832;28;20269;-78
2023/02/20 10:48:50;;;;;;;4.90;1.43;;;;;;;10.45;56.60;96494.78;5022096;28;20179;-78
2023/02/20 10:51:26;;;;;;;3.83;1.40;;;;;;;10.35;57.34;96486.09;5031627;28;20182;-78
2023/02/20 10:53:58;;;;;;;5.13;1.60;;;;;;;10.35;57.36;96477.47;5013470;28;20899;-78
2023/02/20 10:56:41;;;;;;;5.63;2.00;;;;;;;10.45;56.80;96483.56;5023767;28;20191;-78
2023/02/20 10:59:18;;;;;;;3.07;1.50;;;;;;;10.52;57.48;96489.09;5013561;28;20179;-78
2023/02/20 11:01:45;;;;;;;3.63;2.40;;;;;;;10.46;57.21;96483.44;5021290;28;20238;-78
2023/02/20 11:04:14;;;;;;;5.30;1.50;;;;;;;10.64;57.23;96494.09;5022770;28;20687;-78
2023/02/20 11:07:09;;;;;;;4.47;1.70;;;;;;;10.60;56.20;96491.88;5022319;28;20652;-78
2023/02/20 11:09:34;;;;;;;5.30;1.53;;;;;;;10.62;56.74;96487.41;5016878;28;20212;-78
2023/02/20 11:12:00;;;;;;;2.83;1.40;;;;;;;10.86;56.87;96480.16;5007396;28;20194;-78
2023/02/20 11:14:45;;;;;;;4.43;1.60;;;;;;;10.91;55.73;96485.00;5007004;28;20261;-78
2023/02/20 11:17:14;;;;;;;5.20;1.47;;;;;;;10.67;55.50;96483.47;5005318;28;20198;-78
2023/02/20 11:19:47;;;;;;;3.33;1.73;;;;;;;10.93;55.70;96478.72;5021748;28;20262;-79
2023/02/20 11:22:14;;;;;;;3.03;1.30;;;;;;;10.88;55.17;96478.28;5025165;28;20199;-79
2023/02/20 11:24:40;;;;;;;5.03;1.53;;;;;;;10.87;55.03;96481.84;5015657;28;20237;-79
2023/02/20 11:27:16;;;;;;;4.20;1.50;;;;;;;10.98;54.16;96470.56;5020893;28;20254;-78
2023/02/20 11:29:48;;;;;;;5.53;1.47;;;;;;;11.13;54.28;96471.03;5025103;28;20190;-79
2023/02/20 11:32:37;;;;;;;4.60;1.13;;;;;;;11.26;54.19;96469.88;5022010;28;20187;-78
2023/02/20 11:35:18;;;;;;;3.77;1.40;;;;;;;11.17;53.09;96462.03;5017952;28;20226;-78
2023/02/20 11:37:47;;;;;;;3.43;1.37;;;;;;;11.10;53.74;96459.13;5022931;28;20213;-78
2023/02/20 11:40:16;;;;;;;3.03;1.13;;;;;;;11.15;52.34;96456.16;5003176;28;20254;-78
2023/02/20 11:42:43;;;;;;;3.93;1.13;;;;;;;11.06;52.27;96453.38;5020242;28;20198;-78
2023/02/20 11:45:15;;;;;;;3.27;1.20;;;;;;;11.13;51.88;96448.50;5005878;28;20210;-78
2023/02/20 11:47:41;;;;;;;2.53;0.90;;;;;;;11.12;51.00;96444.22;5024474;28;20179;-78
2023/02/20 11:50:11;;;;;;;1.30;0.73;;;;;;;11.17;52.16;96436.88;4995416;28;20189;-77
2023/02/20 11:52:36;;;;;;;3.37;1.10;;;;;;;11.38;51.91;96433.38;5015992;28;20269;-78
2023/02/20 11:55:20;;;;;;;2.00;1.10;;;;;;;11.32;50.84;96424.34;4998699;28;20816;-78
2023/02/20 11:57:46;;;;;;;2.37;0.83;;;;;;;11.34;51.07;96425.84;4999419;28;20270;-78
2023/02/20 12:00:18;;;;;;;2.70;1.00;;;;;;;11.33;50.10;96433.78;5012898;28;20320;-78
2023/02/20 12:02:54;;;;;;;5.03;1.10;;;;;;;11.47;50.29;96428.22;5011390;28;20209;-79
2023/02/20 12:05:21;;;;;;;2.90;1.00;;;;;;;11.37;49.82;96423.94;5041229;28;20187;-78